createdAt,value
2019-05-17T00:01:37.777Z,100004.19
2019-05-17T00:04:29.075Z,100004.55
2019-05-17T00:07:19.280Z,100004.25
2019-05-17T00:10:10.070Z,99994.11
2019-05-17T00:13:00.331Z,99995.96
2019-05-17T00:15:50.457Z,99992.33
2019-05-17T00:18:40.777Z,99990.45
2019-05-17T00:21:30.925Z,99993.05
2019-05-17T00:24:21.360Z,99993.92
2019-05-17T00:27:11.745Z,99990.20
2019-05-17T00:30:01.962Z,99991.25
2019-05-17T00:32:52.525Z,99993.94
2019-05-17T00:35:42.589Z,99996.29
2019-05-17T00:38:45.582Z,99989.22
2019-05-17T00:41:26.897Z,99989.22
2019-05-17T00:44:16.996Z,99995.45
2019-05-17T00:47:07.236Z,99995.45
2019-05-17T00:49:57.553Z,100003.20
2019-05-17T00:52:47.752Z,100000.42
2019-05-17T00:55:37.911Z,100007.80
2019-05-17T00:58:28.274Z,100005.75
2019-05-17T01:01:18.747Z,100007.33
2019-05-17T01:04:08.773Z,99999.23
2019-05-17T01:06:59.053Z,100000.75
2019-05-17T01:09:49.667Z,100000.72
2019-05-17T01:12:39.720Z,100000.06
2019-05-17T01:15:30.025Z,99998.61
2019-05-17T01:18:20.065Z,99995.02
2019-05-17T01:21:10.319Z,99989.23
2019-05-17T01:24:00.659Z,99987.09
2019-05-17T01:26:51.274Z,99987.09
2019-05-17T01:29:41.764Z,99965.37
2019-05-17T01:32:31.992Z,99976.36
2019-05-17T01:35:21.958Z,99973.34
2019-05-17T01:38:12.150Z,99973.62
2019-05-17T01:41:02.111Z,99965.82
2019-05-17T01:43:53.057Z,99968.19
2019-05-17T01:46:43.175Z,99967.80
2019-05-17T01:49:33.568Z,99964.79
2019-05-17T01:52:23.792Z,99966.31
2019-05-17T01:55:14.029Z,99966.52
2019-05-17T01:58:04.073Z,99968.09
2019-05-17T02:00:54.367Z,99964.91
2019-05-17T02:03:46.762Z,99964.09
2019-05-17T02:06:36.796Z,99961.89
2019-05-17T02:09:37.148Z,99963.63
2019-05-17T02:12:19.198Z,99955.37
2019-05-17T02:15:09.576Z,99953.98
2019-05-17T02:17:59.794Z,99953.33
2019-05-17T02:20:49.908Z,99954.52
2019-05-17T02:23:39.873Z,99949.29
2019-05-17T02:26:30.007Z,99947.20
2019-05-17T02:29:21.445Z,99946.80
2019-05-17T02:32:12.883Z,99940.82
2019-05-17T02:35:03.611Z,99952.95
2019-05-17T02:37:53.875Z,99961.88
2019-05-17T02:40:43.814Z,99962.32
2019-05-17T02:43:34.074Z,99963.72
2019-05-17T02:46:24.054Z,99962.69
2019-05-17T02:49:14.402Z,99973.61
2019-05-17T02:52:04.672Z,99975.98
2019-05-17T02:54:55.901Z,99971.16
2019-05-17T02:57:46.215Z,99972.72
2019-05-17T03:00:36.468Z,99978.14
2019-05-17T03:03:26.653Z,99978.14
2019-05-17T03:06:16.959Z,99975.50
2019-05-17T03:09:07.622Z,99923.71
2019-05-17T03:11:57.712Z,99971.16
2019-05-17T03:14:48.102Z,99977.68
2019-05-17T03:17:38.343Z,99977.14
2019-05-17T03:20:28.671Z,99975.05
2019-05-17T03:23:18.700Z,99976.59
2019-05-17T03:26:12.774Z,99972.18
2019-05-17T03:29:03.284Z,99969.54
2019-05-17T03:31:59.786Z,99974.73
2019-05-17T03:34:45.149Z,99970.61
2019-05-17T03:37:37.884Z,99970.77
2019-05-17T03:41:00.558Z,99976.84
2019-05-17T03:43:22.430Z,99979.80
2019-05-17T03:46:13.953Z,99981.56
2019-05-17T03:49:04.131Z,99981.13
2019-05-17T03:51:55.115Z,99980.50
2019-05-17T03:54:45.598Z,99994.87
2019-05-17T03:57:35.970Z,99997.66
2019-05-17T04:00:25.894Z,100007.66
2019-05-17T04:03:16.121Z,100000.37
2019-05-17T04:06:06.429Z,99997.98
2019-05-17T04:08:56.667Z,100005.23
2019-05-17T04:11:46.677Z,100002.89
2019-05-17T04:14:37.990Z,99997.66
2019-05-17T04:17:28.373Z,100002.98
2019-05-17T04:20:18.526Z,99997.45
2019-05-17T04:23:08.931Z,99996.02
2019-05-17T04:26:03.779Z,99992.30
2019-05-17T04:28:53.320Z,99987.73
2019-05-17T04:31:44.069Z,100004.41
2019-05-17T04:34:34.220Z,100008.12
2019-05-17T04:37:24.829Z,100003.54
2019-05-17T04:40:15.675Z,100011.00
2019-05-17T04:43:06.558Z,100009.63
2019-05-17T04:45:57.156Z,100006.38
2019-05-17T04:48:48.018Z,100011.97
2019-05-17T04:51:38.875Z,100013.95
2019-05-17T04:54:33.096Z,100012.83
2019-05-17T04:57:23.118Z,100011.41
2019-05-17T05:00:14.024Z,100010.35
2019-05-17T05:03:04.722Z,100015.27
2019-05-17T05:05:55.621Z,100004.73
2019-05-17T05:08:46.437Z,100023.53
2019-05-17T05:11:51.883Z,100025.84
2019-05-17T05:14:29.336Z,100028.85
2019-05-17T05:17:22.171Z,100020.54
2019-05-17T05:20:13.722Z,100016.27
2019-05-17T05:23:04.617Z,100012.80
2019-05-17T05:25:56.611Z,100026.20
2019-05-17T05:28:49.711Z,100023.49
2019-05-17T05:31:42.602Z,100027.70
2019-05-17T05:34:32.773Z,100028.37
2019-05-17T05:37:23.654Z,100028.37
2019-05-17T05:40:14.591Z,100023.03
2019-05-17T05:43:05.426Z,100041.50
2019-05-17T05:45:56.367Z,100037.31
2019-05-17T05:48:47.381Z,100039.42
2019-05-17T05:51:37.903Z,100033.11
2019-05-17T05:54:28.200Z,100045.83
2019-05-17T05:57:18.792Z,100037.64
2019-05-17T06:00:12.716Z,100050.89
2019-05-17T06:03:04.227Z,100056.24
2019-05-17T06:05:54.935Z,100059.09
2019-05-17T06:08:45.457Z,100055.97
2019-05-17T06:11:35.981Z,100057.08
2019-05-17T06:14:26.259Z,100052.59
2019-05-17T06:17:16.731Z,100054.40
2019-05-17T06:20:07.860Z,100056.55
2019-05-17T06:22:58.432Z,100059.79
2019-05-17T06:25:48.859Z,100061.24
2019-05-17T06:28:39.293Z,100066.48
2019-05-17T06:31:29.799Z,100071.91
2019-05-17T06:34:22.322Z,100075.50
2019-05-17T06:37:14.897Z,100076.70
2019-05-17T06:40:05.156Z,100073.41
2019-05-17T06:42:55.432Z,100072.59
2019-05-17T06:45:45.658Z,100076.03
2019-05-17T06:48:36.183Z,100074.53
2019-05-17T06:51:26.761Z,100075.28
2019-05-17T06:54:17.029Z,100065.77
2019-05-17T06:57:07.481Z,100074.59
2019-05-17T06:59:59.381Z,100070.73
2019-05-17T07:02:50.134Z,100070.41
2019-05-17T07:05:42.352Z,100073.95
2019-05-17T07:08:32.674Z,100069.61
2019-05-17T07:11:23.194Z,100071.80
2019-05-17T07:14:13.925Z,100063.88
2019-05-17T07:17:04.627Z,100065.69
2019-05-17T07:19:55.309Z,100062.91
2019-05-17T07:22:45.538Z,100062.31
2019-05-17T07:25:36.208Z,100052.52
2019-05-17T07:28:26.446Z,100050.78
2019-05-17T07:31:19.377Z,100047.70
2019-05-17T07:34:10.458Z,100046.70
2019-05-17T07:37:01.262Z,100053.20
2019-05-17T07:40:01.195Z,100027.70
2019-05-17T07:42:44.623Z,100028.89
2019-05-17T07:45:35.143Z,100028.89
2019-05-17T07:48:26.091Z,100045.09
2019-05-17T07:51:19.360Z,100045.09
2019-05-17T07:54:10.475Z,100040.28
2019-05-17T07:57:02.379Z,100042.05
2019-05-17T07:59:53.247Z,100021.98
2019-05-17T08:02:44.056Z,100021.98
2019-05-17T08:05:34.752Z,100033.19
2019-05-17T08:08:25.527Z,100038.82
2019-05-17T08:11:16.484Z,100036.44
2019-05-17T08:14:07.612Z,100032.20
2019-05-17T08:16:59.899Z,100031.45
2019-05-17T08:19:51.076Z,100038.75
2019-05-17T08:22:42.027Z,100037.05
2019-05-17T08:25:32.877Z,100031.63
2019-05-17T08:28:23.695Z,100030.05
2019-05-17T08:31:14.439Z,100026.70
2019-05-17T08:34:05.236Z,100027.44
2019-05-17T08:36:56.100Z,100025.34
2019-05-17T08:39:46.701Z,100023.44
2019-05-17T08:42:40.662Z,100025.75
2019-05-17T08:45:31.030Z,100021.21
2019-05-17T08:48:21.880Z,100020.10
2019-05-17T08:51:12.497Z,100020.63
2019-05-17T08:54:03.242Z,100014.28
2019-05-17T08:56:54.139Z,100011.32
2019-05-17T08:59:44.770Z,100014.28
2019-05-17T09:02:35.701Z,100009.72
2019-05-17T09:05:26.701Z,100009.72
2019-05-17T09:08:17.513Z,100010.31
2019-05-17T09:11:09.931Z,100010.17
2019-05-17T09:14:02.107Z,100010.17
2019-05-17T09:16:54.326Z,100005.61
2019-05-17T09:19:45.429Z,100005.78
2019-05-17T09:22:36.443Z,99999.69
2019-05-17T09:25:30.094Z,99998.09
2019-05-17T09:28:20.460Z,99997.34
2019-05-17T09:31:11.927Z,99995.48
2019-05-17T09:34:02.576Z,99994.46
2019-05-17T09:36:53.522Z,99984.59
2019-05-17T09:39:44.303Z,99981.34
2019-05-17T09:42:35.161Z,99985.23
2019-05-17T09:45:25.977Z,99982.19
2019-05-17T09:48:19.487Z,99978.99
2019-05-17T09:51:10.489Z,99974.41
2019-05-17T09:54:01.420Z,99979.20
2019-05-17T09:56:52.154Z,99986.83
2019-05-17T09:59:43.116Z,99981.20
2019-05-17T10:02:33.681Z,99977.69
2019-05-17T10:05:24.553Z,99975.72
2019-05-17T10:08:15.428Z,99971.37
2019-05-17T10:11:09.656Z,99969.70
2019-05-17T10:14:01.128Z,99973.53
2019-05-17T10:16:50.573Z,99968.52
2019-05-17T10:19:41.422Z,99966.63
2019-05-17T10:22:34.075Z,99971.52
2019-05-17T10:25:24.814Z,99969.99
2019-05-17T10:28:15.695Z,99973.61
2019-05-17T10:31:06.481Z,99969.91
2019-05-17T10:33:58.898Z,99972.13
2019-05-17T10:36:50.696Z,99970.59
2019-05-17T10:39:41.887Z,99972.53
2019-05-17T10:42:32.711Z,99968.36
2019-05-17T10:45:23.802Z,99972.53
2019-05-17T10:48:14.597Z,99969.41
2019-05-17T10:51:05.395Z,99973.25
2019-05-17T10:53:56.196Z,99970.59
2019-05-17T10:56:46.923Z,99966.30
2019-05-17T10:59:37.789Z,99962.52
2019-05-17T11:02:30.466Z,99960.53
2019-05-17T11:05:22.042Z,99962.98
2019-05-17T11:08:12.607Z,99957.11
2019-05-17T11:11:03.532Z,99963.09
2019-05-17T11:13:54.475Z,99957.42
2019-05-17T11:16:45.274Z,99949.83
2019-05-17T11:19:35.981Z,99949.56
2019-05-17T11:22:26.605Z,99946.70
2019-05-17T11:25:17.609Z,99941.45
2019-05-17T11:28:08.185Z,99941.47
2019-05-17T11:30:59.239Z,99942.53
2019-05-17T11:33:50.244Z,99949.02
2019-05-17T11:36:40.995Z,99938.85
2019-05-17T11:39:31.826Z,99938.34
2019-05-17T11:42:22.666Z,99941.16
2019-05-17T11:45:26.744Z,99943.57
2019-05-17T11:48:05.913Z,99939.56
2019-05-17T11:50:56.744Z,99942.42
2019-05-17T11:53:47.567Z,99942.50
2019-05-17T11:56:38.415Z,99931.41
2019-05-17T11:59:29.233Z,99929.49
2019-05-17T12:02:21.582Z,99936.41
2019-05-17T12:05:12.378Z,99931.29
2019-05-17T12:08:02.574Z,99927.73
2019-05-17T12:10:53.321Z,99928.66
2019-05-17T12:13:44.146Z,99923.50
2019-05-17T12:16:35.121Z,99920.47
2019-05-17T12:19:25.773Z,99925.92
2019-05-17T12:22:17.666Z,99930.95
2019-05-17T12:25:09.631Z,99926.89
2019-05-17T12:28:00.641Z,99928.77
2019-05-17T12:30:51.251Z,99928.12
2019-05-17T12:33:42.078Z,99926.98
2019-05-17T12:36:32.797Z,99922.88
2019-05-17T12:39:27.430Z,99914.16
2019-05-17T12:42:23.563Z,99918.36
2019-05-17T12:45:19.796Z,99914.88
2019-05-17T12:48:12.362Z,99911.77
2019-05-17T12:51:05.485Z,99911.23
2019-05-17T12:53:58.192Z,99901.33
2019-05-17T12:56:52.323Z,99905.65
2019-05-17T12:59:43.663Z,99904.59
2019-05-17T13:02:37.213Z,99893.97
2019-05-17T13:05:29.179Z,99902.17
2019-05-17T13:08:20.222Z,99898.84
2019-05-17T13:11:10.780Z,99894.11
2019-05-17T13:14:01.743Z,99897.55
2019-05-17T13:16:52.291Z,99892.11
2019-05-17T13:19:43.185Z,99888.75
2019-05-17T13:22:34.807Z,99888.42
2019-05-17T13:25:24.799Z,99880.14
2019-05-17T13:28:15.042Z,99877.31
2019-05-17T13:31:05.642Z,99870.07
2019-05-17T13:33:56.395Z,99871.77
2019-05-17T13:36:47.053Z,99876.47
2019-05-17T13:39:37.771Z,99871.95
2019-05-17T13:42:28.427Z,99865.56
2019-05-17T13:45:19.072Z,99866.63
2019-05-17T13:48:09.933Z,99864.21
2019-05-17T13:51:00.482Z,99857.69
2019-05-17T13:53:51.296Z,99852.25
2019-05-17T13:56:41.885Z,99851.09
2019-05-17T13:59:32.156Z,99844.27
2019-05-17T14:02:23.062Z,99844.26
2019-05-17T14:05:13.163Z,99841.31
2019-05-17T14:08:04.083Z,99846.98
2019-05-17T14:10:54.308Z,99847.39
2019-05-17T14:13:44.727Z,99856.03
2019-05-17T14:16:35.806Z,99854.42
2019-05-17T14:19:26.083Z,99859.38
2019-05-17T14:22:16.297Z,99854.33
2019-05-17T14:25:06.639Z,99860.17
2019-05-17T14:27:57.786Z,99864.08
2019-05-17T14:30:47.891Z,99854.39
2019-05-17T14:33:38.227Z,99855.47
2019-05-17T14:36:28.506Z,99858.41
2019-05-17T14:39:18.965Z,99861.61
2019-05-17T14:42:09.195Z,99863.61
2019-05-17T14:44:59.436Z,99860.66
2019-05-17T14:47:49.552Z,99869.14
2019-05-17T14:50:39.881Z,99856.82
2019-05-17T14:53:30.150Z,99858.75
2019-05-17T14:56:20.126Z,99857.94
2019-05-17T14:59:11.042Z,99846.13
2019-05-17T15:02:01.336Z,99847.38
2019-05-17T15:04:51.312Z,99849.48
2019-05-17T15:07:41.715Z,99849.84
2019-05-17T15:10:31.838Z,99848.22
2019-05-17T15:13:22.293Z,99858.75
2019-05-17T15:16:12.391Z,99856.77
2019-05-17T15:19:02.451Z,99858.39
2019-05-17T15:21:52.384Z,99855.11
2019-05-17T15:24:43.694Z,99846.79
2019-05-17T15:27:33.999Z,99847.07
2019-05-17T15:30:24.066Z,99848.36
2019-05-17T15:33:14.374Z,99850.44
2019-05-17T15:36:04.600Z,99852.47
2019-05-17T15:38:57.568Z,99858.05
2019-05-17T15:41:49.024Z,99858.38
2019-05-17T15:44:39.245Z,99857.59
2019-05-17T15:47:29.520Z,99857.91
2019-05-17T15:50:19.759Z,99856.75
2019-05-17T15:53:10.262Z,99848.99
2019-05-17T15:56:00.469Z,99848.34
2019-05-17T15:58:50.843Z,99849.17
2019-05-17T16:01:41.066Z,99843.75
2019-05-17T16:04:31.343Z,99847.64
2019-05-17T16:07:21.543Z,99858.03
2019-05-17T16:10:13.448Z,99852.94
2019-05-17T16:13:03.787Z,99849.72
2019-05-17T16:15:54.965Z,99851.08
2019-05-17T16:18:45.183Z,99857.88
2019-05-17T16:21:35.502Z,99850.80
2019-05-17T16:24:25.653Z,99863.14
2019-05-17T16:27:15.900Z,99857.86
2019-05-17T16:30:06.352Z,99855.32
2019-05-17T16:32:56.673Z,99855.70
2019-05-17T16:35:46.892Z,99853.67
2019-05-17T16:38:37.189Z,99853.72
2019-05-17T16:41:27.136Z,99852.02
2019-05-17T16:44:17.334Z,99855.90
2019-05-17T16:47:07.684Z,99859.91
2019-05-17T16:49:57.962Z,99852.53
2019-05-17T16:52:48.319Z,99857.66
2019-05-17T16:55:39.809Z,99858.66
2019-05-17T16:58:29.776Z,99853.83
2019-05-17T17:01:20.090Z,99859.49
2019-05-17T17:04:10.329Z,99861.48
2019-05-17T17:07:00.588Z,99860.30
2019-05-17T17:09:50.812Z,99863.80
2019-05-17T17:12:42.130Z,99863.01
2019-05-17T17:15:32.369Z,99869.41
2019-05-17T17:18:22.654Z,99866.27
2019-05-17T17:21:13.268Z,99867.94
2019-05-17T17:24:03.740Z,99863.78
2019-05-17T17:26:54.908Z,99870.23
2019-05-17T17:29:45.252Z,99873.68
2019-05-17T17:32:35.495Z,99871.79
2019-05-17T17:35:25.546Z,99876.58
2019-05-17T17:38:15.687Z,99876.50
2019-05-17T17:41:05.971Z,99881.88
2019-05-17T17:43:58.854Z,99886.56
2019-05-17T17:46:47.753Z,99898.00
2019-05-17T17:49:37.835Z,99896.20
2019-05-17T17:52:28.360Z,99900.27
2019-05-17T17:55:18.692Z,99904.03
2019-05-17T17:58:09.075Z,99904.03
2019-05-17T18:00:59.042Z,99906.27
2019-05-17T18:03:49.267Z,99903.85
2019-05-17T18:06:39.299Z,99911.76
2019-05-17T18:09:29.598Z,99915.14
2019-05-17T18:12:19.769Z,99916.59
2019-05-17T18:15:10.056Z,99922.33
2019-05-17T18:18:01.558Z,99918.81
2019-05-17T18:20:52.543Z,99924.55
2019-05-17T18:23:42.932Z,99934.00
2019-05-17T18:26:33.872Z,99936.28
2019-05-17T18:29:23.823Z,99937.12
2019-05-17T18:32:14.113Z,99940.46
2019-05-17T18:35:04.500Z,99939.49
2019-05-17T18:37:54.731Z,99935.41
2019-05-17T18:40:45.009Z,99939.86
2019-05-17T18:43:35.346Z,99942.19
2019-05-17T18:46:25.608Z,99950.92
2019-05-17T18:49:15.970Z,99948.56
2019-05-17T18:52:06.350Z,99953.21
2019-05-17T18:54:56.765Z,99955.23
2019-05-17T18:57:47.040Z,99958.69
2019-05-17T19:00:38.482Z,99952.84
2019-05-17T19:03:28.795Z,99956.72
2019-05-17T19:06:19.091Z,99960.34
2019-05-17T19:09:09.563Z,99966.45
2019-05-17T19:11:59.590Z,99962.20
2019-05-17T19:14:49.845Z,99959.61
2019-05-17T19:17:40.213Z,99962.27
2019-05-17T19:20:31.261Z,99959.62
2019-05-17T19:23:21.689Z,99970.16
2019-05-17T19:26:12.090Z,99970.27
2019-05-17T19:29:02.562Z,99971.89
2019-05-17T19:31:52.464Z,99974.75
2019-05-17T19:34:42.670Z,99980.86
2019-05-17T19:37:32.867Z,99984.39
2019-05-17T19:40:23.083Z,99986.78
2019-05-17T19:43:13.286Z,99988.79
2019-05-17T19:46:03.527Z,99995.50
2019-05-17T19:48:53.753Z,99989.11
2019-05-17T19:51:44.273Z,99984.36
2019-05-17T19:54:34.656Z,99989.17
2019-05-17T19:57:24.965Z,99992.20
2019-05-17T20:00:16.051Z,99989.78
2019-05-17T20:03:06.081Z,99991.80
2019-05-17T20:05:56.007Z,99999.87
2019-05-17T20:08:46.239Z,99996.44
2019-05-17T20:11:36.472Z,100003.34
2019-05-17T20:14:26.710Z,100001.42
2019-05-17T20:17:16.840Z,99999.70
2019-05-17T20:20:07.399Z,99996.92
2019-05-17T20:22:59.093Z,99998.05
2019-05-17T20:25:49.254Z,99998.90
2019-05-17T20:28:39.380Z,99999.95
2019-05-17T20:31:29.653Z,100001.67
2019-05-17T20:34:19.846Z,99997.86
2019-05-17T20:37:10.155Z,99998.29
2019-05-17T20:40:00.045Z,100001.20
2019-05-17T20:42:50.316Z,100005.12
2019-05-17T20:45:40.599Z,100005.70
2019-05-17T20:48:31.075Z,100002.67
2019-05-17T20:51:21.435Z,100001.98
2019-05-17T20:54:11.506Z,100003.48
2019-05-17T20:57:01.399Z,100003.67
2019-05-17T20:59:51.652Z,100011.67
2019-05-17T21:02:41.647Z,100007.72
2019-05-17T21:05:31.919Z,100003.79
2019-05-17T21:08:21.949Z,100009.44
2019-05-17T21:11:12.031Z,100001.12
2019-05-17T21:14:02.258Z,100003.43
2019-05-17T21:16:52.694Z,100002.80
2019-05-17T21:19:43.022Z,100000.97
2019-05-17T21:22:33.353Z,99996.59
2019-05-17T21:25:23.655Z,99996.41
2019-05-17T21:28:13.953Z,100000.77
2019-05-17T21:31:04.188Z,99995.41
2019-05-17T21:33:55.390Z,99994.50
2019-05-17T21:36:45.633Z,99998.42
2019-05-17T21:39:35.686Z,99997.80
2019-05-17T21:42:25.888Z,99993.90
2019-05-17T21:45:17.276Z,99999.12
2019-05-17T21:48:07.649Z,99995.72
2019-05-17T21:50:58.037Z,99994.05
2019-05-17T21:53:48.273Z,99997.74
2019-05-17T21:56:38.540Z,99995.41
2019-05-17T21:59:28.436Z,99987.29
2019-05-17T22:02:18.756Z,99991.36
2019-05-17T22:05:08.943Z,99992.20
2019-05-17T22:07:59.292Z,99985.92
2019-05-17T22:10:49.653Z,99984.94
2019-05-17T22:13:39.817Z,99986.12
2019-05-17T22:16:30.202Z,99988.94
2019-05-17T22:19:20.465Z,99964.27
2019-05-17T22:22:10.635Z,99994.99
2019-05-17T22:25:00.645Z,99990.66
2019-05-17T22:27:50.923Z,99990.12
2019-05-17T22:30:41.292Z,99984.94
2019-05-17T22:33:31.504Z,99987.36
2019-05-17T22:36:21.897Z,99987.80
2019-05-17T22:39:12.199Z,99986.63
2019-05-17T22:42:02.609Z,99985.12
2019-05-17T22:44:53.016Z,99994.30
2019-05-17T22:47:43.211Z,99990.20
2019-05-17T22:50:33.020Z,99989.70
2019-05-17T22:53:23.301Z,99989.57
2019-05-17T22:56:13.607Z,99988.89
2019-05-17T22:59:03.710Z,99991.60
2019-05-17T23:01:53.944Z,99986.77
2019-05-17T23:04:44.259Z,99995.06
2019-05-17T23:07:34.322Z,99992.86
2019-05-17T23:10:24.785Z,99989.48
2019-05-17T23:13:15.172Z,99989.84
2019-05-17T23:16:07.308Z,99987.98
2019-05-17T23:19:10.169Z,99984.24
2019-05-17T23:22:00.477Z,99981.50
2019-05-17T23:24:50.651Z,99982.70
2019-05-17T23:27:40.925Z,99977.30
2019-05-17T23:30:31.153Z,99980.64
2019-05-17T23:33:21.508Z,99985.73
2019-05-17T23:36:11.772Z,99974.91
2019-05-17T23:39:02.282Z,99974.91
2019-05-17T23:41:53.455Z,99981.72
2019-05-17T23:44:43.671Z,99977.61
2019-05-17T23:47:33.572Z,99979.28
2019-05-17T23:50:23.862Z,99972.20
2019-05-17T23:53:14.114Z,99975.77
2019-05-17T23:56:04.272Z,99968.31
2019-05-17T23:58:54.520Z,99961.70
